Time;durP1;ratioP1;P1;durP2;ratioP2;P2;SDS_P1;SDS_P2;PMS_P1;PMS_P2;Temp;Humidity;BMP_temperature;BMP_pressure;BME280_temperature;BME280_humidity;BME280_pressure;Samples;Min_cycle;Max_cycle;Signal;HPM_P1;HPM_P2
2019/12/02 00:00:41;;;;;;;18.3;16.2;;;;;;;;;;;;;
2019/12/02 00:03:15;;;;;;;18;15.7;;;;;;;;;;;;;
2019/12/02 00:05:56;;;;;;;18.8;16.7;;;;;;;;;;;;;
2019/12/02 00:08:20;;;;;;;20;17.3;;;;;;;;;;;;;
2019/12/02 00:10:25;;;;;;;19;16.9;;;;;;;;;;;;;
2019/12/02 00:12:59;;;;;;;19;17;;;;;;;;;;;;;
2019/12/02 00:15:13;;;;;;;20;17.5;;;;;;;;;;;;;
2019/12/02 00:17:38;;;;;;;18.9;16.9;;;;;;;;;;;;;
2019/12/02 00:20:05;;;;;;;19.8;16.3;;;;;;;;;;;;;
2019/12/02 00:22:34;;;;;;;19.3;16.6;;;;;;;;;;;;;
2019/12/02 00:25:10;;;;;;;20.7;17.2;;;;;;;;;;;;;
2019/12/02 00:27:31;;;;;;;18.7;16.5;;;;;;;;;;;;;
2019/12/02 00:30:00;;;;;;;18.3;16.4;;;;;;;;;;;;;
2019/12/02 00:32:22;;;;;;;19.2;16.9;;;;;;;;;;;;;
2019/12/02 00:34:59;;;;;;;20.5;17.1;;;;;;;;;;;;;
2019/12/02 00:37:11;;;;;;;19.2;17;;;;;;;;;;;;;
2019/12/02 00:42:20;;;;;;;21;17.5;;;;;;;;;;;;;
2019/12/02 00:44:46;;;;;;;19.5;17.4;;;;;;;;;;;;;
2019/12/02 00:47:10;;;;;;;21.6;18.2;;;;;;;;;;;;;
2019/12/02 00:49:35;;;;;;;20.4;17.5;;;;;;;;;;;;;
2019/12/02 00:52:01;;;;;;;19.1;17;;;;;;;;;;;;;
2019/12/02 00:54:28;;;;;;;20.4;18.3;;;;;;;;;;;;;
2019/12/02 00:56:52;;;;;;;19.6;17.5;;;;;;;;;;;;;
2019/12/02 00:59:22;;;;;;;19;17;;;;;;;;;;;;;
2019/12/02 01:01:59;;;;;;;21.1;18.7;;;;;;;;;;;;;
2019/12/02 01:07:02;;;;;;;21.5;19;;;;;;;;;;;;;
2019/12/02 01:09:08;;;;;;;20.7;18.5;;;;;;;;;;;;;
2019/12/02 01:11:31;;;;;;;21.6;18.9;;;;;;;;;;;;;
2019/12/02 01:14:03;;;;;;;21;18.7;;;;;;;;;;;;;
2019/12/02 01:16:29;;;;;;;19.7;17.6;;;;;;;;;;;;;
2019/12/02 01:18:58;;;;;;;20.2;18.1;;;;;;;;;;;;;
2019/12/02 01:21:22;;;;;;;20.7;18.2;;;;;;;;;;;;;
2019/12/02 01:23:51;;;;;;;19.8;17.6;;;;;;;;;;;;;
2019/12/02 01:26:14;;;;;;;21.2;18.9;;;;;;;;;;;;;
2019/12/02 01:28:38;;;;;;;21;18.7;;;;;;;;;;;;;
2019/12/02 01:31:10;;;;;;;22.2;19.8;;;;;;;;;;;;;
2019/12/02 01:33:36;;;;;;;23.3;20.8;;;;;;;;;;;;;
2019/12/02 01:36:06;;;;;;;25;20.9;;;;;;;;;;;;;
2019/12/02 01:38:33;;;;;;;23.4;20.8;;;;;;;;;;;;;
2019/12/02 01:41:02;;;;;;;24.1;21.4;;;;;;;;;;;;;
2019/12/02 01:43:25;;;;;;;23.1;20.7;;;;;;;;;;;;;
2019/12/02 01:45:49;;;;;;;23.1;20.7;;;;;;;;;;;;;
2019/12/02 01:48:14;;;;;;;22.3;20;;;;;;;;;;;;;
2019/12/02 01:51:15;;;;;;;23.7;21.2;;;;;;;;;;;;;
2019/12/02 01:53:27;;;;;;;23.4;20.9;;;;;;;;;;;;;
2019/12/02 01:56:00;;;;;;;22.3;20;;;;;;;;;;;;;
2019/12/02 01:58:25;;;;;;;23.1;20.7;;;;;;;;;;;;;
2019/12/02 02:00:49;;;;;;;22.5;20.2;;;;;;;;;;;;;
2019/12/02 02:03:13;;;;;;;23.2;20.9;;;;;;;;;;;;;
2019/12/02 02:05:42;;;;;;;22.3;20.1;;;;;;;;;;;;;
2019/12/02 02:08:06;;;;;;;20.5;18.5;;;;;;;;;;;;;
2019/12/02 02:10:37;;;;;;;21.1;19;;;;;;;;;;;;;
2019/12/02 02:13:02;;;;;;;23.3;21;;;;;;;;;;;;;
2019/12/02 02:15:26;;;;;;;20.5;18.5;;;;;;;;;;;;;
2019/12/02 02:17:57;;;;;;;21.2;19.1;;;;;;;;;;;;;
2019/12/02 02:20:27;;;;;;;24.1;21.6;;;;;;;;;;;;;
2019/12/02 02:22:54;;;;;;;24.8;22.3;;;;;;;;;;;;;
2019/12/02 02:25:30;;;;;;;23.4;21.1;;;;;;;;;;;;;
2019/12/02 02:28:01;;;;;;;21.9;19.8;;;;;;;;;;;;;
2019/12/02 02:30:17;;;;;;;23.9;21.4;;;;;;;;;;;;;
2019/12/02 02:32:41;;;;;;;24.4;21.9;;;;;;;;;;;;;
2019/12/02 02:35:04;;;;;;;24.6;22.1;;;;;;;;;;;;;
2019/12/02 02:37:29;;;;;;;23.6;21.3;;;;;;;;;;;;;
2019/12/02 02:40:00;;;;;;;23.1;20.8;;;;;;;;;;;;;
2019/12/02 02:42:24;;;;;;;20.9;18.9;;;;;;;;;;;;;
2019/12/02 02:47:19;;;;;;;20.8;18.8;;;;;;;;;;;;;
2019/12/02 02:49:45;;;;;;;18.5;16.8;;;;;;;;;;;;;
2019/12/02 02:52:13;;;;;;;18.3;16.5;;;;;;;;;;;;;
2019/12/02 02:54:36;;;;;;;18.6;16.9;;;;;;;;;;;;;
2019/12/02 02:57:02;;;;;;;17.5;15.8;;;;;;;;;;;;;
2019/12/02 02:59:30;;;;;;;17.6;15.9;;;;;;;;;;;;;
2019/12/02 03:01:53;;;;;;;18.4;16.6;;;;;;;;;;;;;
2019/12/02 03:04:17;;;;;;;18.7;16.9;;;;;;;;;;;;;
2019/12/02 03:06:46;;;;;;;18.4;16.6;;;;;;;;;;;;;
2019/12/02 03:09:12;;;;;;;18.9;17.1;;;;;;;;;;;;;
2019/12/02 03:11:37;;;;;;;19.3;17.5;;;;;;;;;;;;;
2019/12/02 03:14:01;;;;;;;19.9;17.9;;;;;;;;;;;;;
2019/12/02 03:18:56;;;;;;;19.8;17.9;;;;;;;;;;;;;
2019/12/02 03:21:23;;;;;;;20;18.1;;;;;;;;;;;;;
2019/12/02 03:23:58;;;;;;;19.4;17.5;;;;;;;;;;;;;
2019/12/02 03:26:15;;;;;;;17.4;15.8;;;;;;;;;;;;;
2019/12/02 03:28:36;;;;;;;17.3;15.7;;;;;;;;;;;;;
2019/12/02 03:31:18;;;;;;;17.4;15.7;;;;;;;;;;;;;
2019/12/02 03:33:42;;;;;;;18.5;16.7;;;;;;;;;;;;;
2019/12/02 03:36:17;;;;;;;17.6;16;;;;;;;;;;;;;
2019/12/02 03:39:18;;;;;;;17.1;15.5;;;;;;;;;;;;;
2019/12/02 03:41:32;;;;;;;17.5;15.8;;;;;;;;;;;;;
2019/12/02 03:43:56;;;;;;;17.7;16;;;;;;;;;;;;;
2019/12/02 03:46:24;;;;;;;18.9;17;;;;;;;;;;;;;
2019/12/02 03:48:48;;;;;;;19.2;17.3;;;;;;;;;;;;;
2019/12/02 03:51:17;;;;;;;18.5;16.8;;;;;;;;;;;;;
2019/12/02 03:53:42;;;;;;;18.6;16.8;;;;;;;;;;;;;
2019/12/02 03:56:08;;;;;;;17.8;16.2;;;;;;;;;;;;;
2019/12/02 03:58:35;;;;;;;19.5;17.7;;;;;;;;;;;;;
2019/12/02 04:02:35;;;;;;;18.7;16.9;;;;;;;3.6;85.57422;938.0081;;;;
2019/12/02 04:05:01;;;;;;;17.6;16;;;;;;;3.57;85.73438;937.9758;;;;
2019/12/02 04:07:35;;;;;;;17;15.3;;;;;;;3.51;85.94922;938.0449;;;;
2019/12/02 04:10:05;;;;;;;19.4;17.5;;;;;;;3.49;86.19336;938.0505;;;;
2019/12/02 04:12:32;;;;;;;21.2;19.2;;;;;;;3.5;86.11426;938.1319;;;;
2019/12/02 04:14:56;;;;;;;19.6;17.7;;;;;;;3.55;86.4043;938.1451;;;;
2019/12/02 04:17:30;;;;;;;18;16.3;;;;;;;3.59;86.07813;938.1555;;;;
2019/12/02 04:19:51;;;;;;;17.2;15.5;;;;;;;3.59;85.56934;938.178;;;;
2019/12/02 04:22:23;;;;;;;18.6;16.8;;;;;;;3.53;86.05273;938.0974;;;;
2019/12/02 04:24:58;;;;;;;18.2;16.5;;;;;;;3.61;85.65332;938.2625;;;;
2019/12/02 04:27:29;;;;;;;20.5;18.5;;;;;;;3.59;85.25488;938.2238;;;;
2019/12/02 04:29:59;;;;;;;21;18.9;;;;;;;3.56;85.51855;938.3652;;;;
2019/12/02 04:32:20;;;;;;;19.8;17.9;;;;;;;3.61;85.5293;938.4155;;;;
2019/12/02 04:34:49;;;;;;;19.6;17.8;;;;;;;3.6;85.31641;938.4321;;;;
2019/12/02 04:37:20;;;;;;;19.2;17.4;;;;;;;3.61;85.51855;938.4894;;;;
2019/12/02 04:39:50;;;;;;;17.8;16.2;;;;;;;3.43;86.20117;938.4471;;;;
2019/12/02 04:42:17;;;;;;;15.9;14.5;;;;;;;3.35;86.82422;938.4213;;;;
2019/12/02 04:44:52;;;;;;;16.1;14.7;;;;;;;3.27;87.10156;938.4869;;;;
2019/12/02 04:47:21;;;;;;;17.7;16;;;;;;;3.25;86.91602;938.4576;;;;
2019/12/02 04:49:53;;;;;;;17.8;16.1;;;;;;;3.28;87.00195;938.4981;;;;
2019/12/02 04:52:19;;;;;;;17.3;15.7;;;;;;;3.22;86.97852;938.5658;;;;
2019/12/02 04:54:47;;;;;;;17.7;16;;;;;;;3.16;87.33789;938.6021;;;;
2019/12/02 04:57:13;;;;;;;17.8;16.2;;;;;;;3.23;87.34863;938.5614;;;;
2019/12/02 04:59:48;;;;;;;18.2;16.5;;;;;;;3.27;87.12402;938.6984;;;;
2019/12/02 05:02:28;;;;;;;17.8;16.1;;;;;;;3.39;86.70801;938.7208;;;;
2019/12/02 05:05:00;;;;;;;20.1;18.2;;;;;;;3.38;86.55078;938.7126;;;;
2019/12/02 05:07:19;;;;;;;19.9;18.1;;;;;;;3.45;86.43066;938.7282;;;;
2019/12/02 05:09:55;;;;;;;21.1;19;;;;;;;3.48;86.16699;938.7213;;;;
2019/12/02 05:12:26;;;;;;;20.9;18.9;;;;;;;3.48;85.93066;938.6733;;;;
2019/12/02 05:14:48;;;;;;;20.3;18.3;;;;;;;3.4;86.46484;938.7371;;;;
2019/12/02 05:17:14;;;;;;;21.1;19;;;;;;;3.42;86.58301;938.8105;;;;
2019/12/02 05:19:43;;;;;;;21.4;19.4;;;;;;;3.47;86.34473;938.8178;;;;
2019/12/02 05:22:20;;;;;;;18.6;16.9;;;;;;;3.47;86.31348;938.8447;;;;
2019/12/02 05:25:13;;;;;;;18.2;16.4;;;;;;;3.49;85.98926;938.8816;;;;
2019/12/02 05:27:37;;;;;;;21.2;19.2;;;;;;;3.5;86.18164;938.9482;;;;
2019/12/02 05:30:14;;;;;;;19.5;17.6;;;;;;;3.55;85.77734;938.8781;;;;
2019/12/02 05:32:40;;;;;;;23.6;21.2;;;;;;;3.49;86.12402;938.9091;;;;
2019/12/02 05:35:17;;;;;;;22.2;20.1;;;;;;;3.46;86.01758;938.9458;;;;
2019/12/02 05:37:52;;;;;;;22.2;20;;;;;;;3.31;86.80762;939.0833;;;;
2019/12/02 05:40:17;;;;;;;19.4;17.6;;;;;;;3.4;86.73438;939.1573;;;;
2019/12/02 05:42:43;;;;;;;20.6;18.6;;;;;;;3.47;86.60352;939.1713;;;;
2019/12/02 05:45:07;;;;;;;18.9;17.1;;;;;;;3.54;86;939.2375;;;;
2019/12/02 05:47:47;;;;;;;22.4;20.1;;;;;;;3.13;87.05176;939.2422;;;;
2019/12/02 05:50:12;;;;;;;24.2;21.8;;;;;;;2.9;88.38281;939.3022;;;;
2019/12/02 05:52:42;;;;;;;26.5;23.8;;;;;;;2.95;88.58301;939.3354;;;;
2019/12/02 05:55:16;;;;;;;28.2;25.3;;;;;;;2.92;88.28418;939.3922;;;;
2019/12/02 05:57:38;;;;;;;29.7;26.6;;;;;;;2.89;88.52637;939.3133;;;;
2019/12/02 06:00:08;;;;;;;29.8;26.6;;;;;;;2.77;88.53418;939.4348;;;;
2019/12/02 06:02:35;;;;;;;30.6;27.3;;;;;;;2.61;89.36523;939.47;;;;
2019/12/02 06:05:07;;;;;;;32.1;28.7;;;;;;;2.61;89.18555;939.4661;;;;
2019/12/02 06:07:32;;;;;;;33.2;29.6;;;;;;;2.56;89.56641;939.5613;;;;
2019/12/02 06:10:01;;;;;;;34.2;30.5;;;;;;;2.48;89.74219;939.5399;;;;
2019/12/02 06:12:26;;;;;;;38.4;33.6;;;;;;;2.36;90.10742;939.603;;;;
2019/12/02 06:14:54;;;;;;;38.4;33;;;;;;;2.47;89.88379;939.6281;;;;
2019/12/02 06:17:19;;;;;;;40.2;34.1;;;;;;;2.5;89.63379;939.6194;;;;
2019/12/02 06:19:45;;;;;;;41.9;35.6;;;;;;;2.57;89.44531;939.6348;;;;
2019/12/02 06:22:15;;;;;;;43.8;37.1;;;;;;;2.56;89.30859;939.7254;;;;
2019/12/02 06:24:48;;;;;;;52.1;41.3;;;;;;;2.39;89.95605;939.7967;;;;
2019/12/02 06:27:25;;;;;;;57.9;41.7;;;;;;;2.17;90.25781;939.8052;;;;
2019/12/02 06:29:51;;;;;;;54.1;42.6;;;;;;;2.27;90.21094;939.8497;;;;
2019/12/02 06:32:21;;;;;;;57.8;45.3;;;;;;;2.29;90.19238;939.9089;;;;
2019/12/02 06:34:47;;;;;;;56;44.2;;;;;;;2.39;89.66699;939.9666;;;;
2019/12/02 06:37:23;;;;;;;53.6;42.8;;;;;;;2.52;89.11035;940.0305;;;;
2019/12/02 06:39:55;;;;;;;53.8;41.7;;;;;;;2.56;88.7373;940.0909;;;;
2019/12/02 06:44:52;;;;;;;53;41.9;;;;;;;2.65;88.16406;940.1842;;;;
2019/12/02 06:47:28;;;;;;;53.4;41;;;;;;;2.73;88.13574;940.2519;;;;
2019/12/02 06:49:50;;;;;;;50.2;40.2;;;;;;;2.84;87.42773;940.2622;;;;
2019/12/02 06:52:36;;;;;;;46.4;38.1;;;;;;;2.62;87.98633;940.3546;;;;
2019/12/02 06:55:05;;;;;;;44.9;37.8;;;;;;;2.61;87.59375;940.3503;;;;
2019/12/02 06:57:37;;;;;;;46.7;38.7;;;;;;;2.46;87.99902;940.3563;;;;
2019/12/02 07:00:15;;;;;;;48.3;39.7;;;;;;;2.39;89.03906;940.4255;;;;
2019/12/02 07:02:39;;;;;;;48.2;39.1;;;;;;;2.42;88.49609;940.5151;;;;
2019/12/02 07:05:15;;;;;;;50;40.5;;;;;;;2.41;88.30371;940.5571;;;;
2019/12/02 07:10:21;;;;;;;51;41.7;;;;;;;2.47;87.46387;940.6011;;;;
2019/12/02 07:12:50;;;;;;;55.6;43.4;;;;;;;2.48;87.9248;940.6566;;;;
2019/12/02 07:15:22;;;;;;;54.9;43.6;;;;;;;2.41;88.23438;940.6395;;;;
2019/12/02 07:17:47;;;;;;;62.2;46.4;;;;;;;2.32;88.49805;940.7445;;;;
2019/12/02 07:20:31;;;;;;;60.4;46.4;;;;;;;2.43;88.55371;940.7958;;;;
2019/12/02 07:23:11;;;;;;;56.3;44.5;;;;;;;2.4;88.03125;940.813;;;;
2019/12/02 07:25:36;;;;;;;56.5;45.5;;;;;;;2.46;87.93262;940.8672;;;;
2019/12/02 07:30:45;;;;;;;63.5;49;;;;;;;2.4;88.14551;940.9719;;;;
2019/12/02 07:33:17;;;;;;;61.1;47.4;;;;;;;2.48;87.60156;940.9529;;;;
2019/12/02 07:35:59;;;;;;;67.3;49.4;;;;;;;2.44;87.75879;941.0502;;;;
2019/12/02 07:38:32;;;;;;;78.6;55;;;;;;;2.57;88.60449;941.0164;;;;
2019/12/02 07:40:58;;;;;;;72.2;52;;;;;;;2.64;86.99414;941.1103;;;;
2019/12/02 07:43:29;;;;;;;70.8;53.6;;;;;;;2.62;86.49805;941.1566;;;;
2019/12/02 07:46:00;;;;;;;77.9;55.1;;;;;;;2.64;86.64746;941.1889;;;;
2019/12/02 07:48:25;;;;;;;82;56.7;;;;;;;2.63;86.24023;941.1945;;;;
2019/12/02 07:50:57;;;;;;;74.2;53.8;;;;;;;2.63;85.55762;941.1781;;;;
2019/12/02 07:53:46;;;;;;;79.4;55;;;;;;;2.65;85.72949;941.3056;;;;
2019/12/02 07:56:14;;;;;;;76.1;53.1;;;;;;;2.66;85.65332;941.2219;;;;
2019/12/02 07:58:44;;;;;;;79.6;54.7;;;;;;;2.69;86.16309;941.3308;;;;
2019/12/02 08:01:26;;;;;;;77.3;54.3;;;;;;;2.53;85.83887;941.3777;;;;
2019/12/02 08:04:12;;;;;;;73.1;53;;;;;;;2.52;86.07227;941.382;;;;
2019/12/02 08:09:04;;;;;;;78;54.7;;;;;;;2.52;86.25098;941.4395;;;;
2019/12/02 08:11:31;;;;;;;77.5;53.9;;;;;;;2.39;86.56348;941.4722;;;;
2019/12/02 08:14:01;;;;;;;80.5;55.8;;;;;;;2.57;86.2627;941.4943;;;;
2019/12/02 08:16:37;;;;;;;74.2;53.3;;;;;;;2.39;85.8916;941.5036;;;;
2019/12/02 08:19:07;;;;;;;77.2;55.1;;;;;;;2.52;86.41016;941.5378;;;;
2019/12/02 08:21:48;;;;;;;78.3;55.2;;;;;;;2.58;86.41016;941.5067;;;;
2019/12/02 08:24:20;;;;;;;80.1;56;;;;;;;2.52;86.20703;941.5628;;;;
2019/12/02 08:26:45;;;;;;;81.1;55.2;;;;;;;2.5;86.22754;941.5269;;;;
2019/12/02 08:29:12;;;;;;;75.2;54.3;;;;;;;2.59;86.32227;941.5345;;;;
2019/12/02 08:31:45;;;;;;;69.1;51;;;;;;;2.78;85.19434;941.5345;;;;
2019/12/02 08:34:12;;;;;;;70.2;50.8;;;;;;;2.41;85.37793;941.5061;;;;
2019/12/02 08:36:52;;;;;;;69.9;51.2;;;;;;;2.65;85.59375;941.5145;;;;
2019/12/02 08:39:45;;;;;;;64.6;48.4;;;;;;;2.49;85.79785;941.5437;;;;
2019/12/02 08:42:15;;;;;;;67.3;51;;;;;;;2.61;85.75586;941.5781;;;;
2019/12/02 08:44:41;;;;;;;61.8;47.5;;;;;;;2.76;84.83203;941.6069;;;;
2019/12/02 08:47:17;;;;;;;66.4;48.3;;;;;;;2.9;84.16406;941.6256;;;;
2019/12/02 08:49:44;;;;;;;62;47.5;;;;;;;2.85;84;941.6592;;;;
2019/12/02 08:52:38;;;;;;;61.6;47.1;;;;;;;3.07;83.96191;941.6319;;;;
2019/12/02 08:55:07;;;;;;;60.9;46.3;;;;;;;3.03;83.52832;941.6814;;;;
2019/12/02 08:57:41;;;;;;;58.9;45.1;;;;;;;3.12;83.15332;941.7549;;;;
2019/12/02 09:00:16;;;;;;;59.3;44.2;;;;;;;2.75;83.7666;941.8394;;;;
2019/12/02 09:02:49;;;;;;;61.2;46.6;;;;;;;2.69;84.68359;941.8497;;;;
2019/12/02 09:05:21;;;;;;;62.9;46.3;;;;;;;2.78;84.56641;941.9267;;;;
2019/12/02 09:07:56;;;;;;;60.3;45.2;;;;;;;2.65;84.49707;941.9526;;;;
2019/12/02 09:10:21;;;;;;;61.3;47;;;;;;;2.56;85.46484;942.0358;;;;
2019/12/02 09:12:53;;;;;;;62.5;45.9;;;;;;;2.62;85.11914;942.0284;;;;
2019/12/02 09:15:25;;;;;;;58.1;46.2;;;;;;;2.5;85.08203;942.0469;;;;
2019/12/02 09:18:00;;;;;;;58.7;44.7;;;;;;;2.69;84.61621;942.0714;;;;
2019/12/02 09:20:41;;;;;;;57;44.7;;;;;;;2.87;83.89063;942.0691;;;;
2019/12/02 09:23:11;;;;;;;57.9;44.6;;;;;;;2.87;83.50977;942.1194;;;;
2019/12/02 09:25:37;;;;;;;60.4;44.2;;;;;;;2.92;83.58594;942.1663;;;;
2019/12/02 09:28:32;;;;;;;53.5;43.4;;;;;;;3.01;82.62891;942.1533;;;;
2019/12/02 09:31:02;;;;;;;55.9;43.3;;;;;;;3.11;82.70117;942.2266;;;;
2019/12/02 09:33:48;;;;;;;57.6;45;;;;;;;3.04;83.13965;942.2764;;;;
2019/12/02 09:36:20;;;;;;;57.4;44.9;;;;;;;3.02;82.57324;942.2583;;;;
2019/12/02 09:38:54;;;;;;;57;45.1;;;;;;;2.98;83.01367;942.2811;;;;
2019/12/02 09:41:32;;;;;;;59.9;46.9;;;;;;;2.93;83.79004;942.327;;;;
2019/12/02 09:44:00;;;;;;;58.7;45.9;;;;;;;2.88;84.39551;942.3719;;;;
2019/12/02 09:46:33;;;;;;;62;46.3;;;;;;;2.79;84.49023;942.3622;;;;
2019/12/02 09:49:27;;;;;;;62;47.3;;;;;;;2.79;84.68066;942.3785;;;;
2019/12/02 09:51:59;;;;;;;58.2;45.7;;;;;;;2.66;84.68945;942.48;;;;
2019/12/02 09:54:23;;;;;;;58.7;45.8;;;;;;;2.71;85.12402;942.5047;;;;
2019/12/02 09:56:49;;;;;;;56.2;44.1;;;;;;;2.8;84.52539;942.5009;;;;
2019/12/02 10:00:07;;;;;;;49.8;40.6;;;;;;;2.85;83.46875;942.52;;;;
2019/12/02 10:03:11;;;;;;;48.2;40.4;;;;;;;2.93;83.72266;942.5535;;;;
2019/12/02 10:07:00;;;;;;;51.5;42.3;;;;;;;;;;;;;
2019/12/02 10:09:23;;;;;;;50.9;41.3;;;;;;;;;;;;;
2019/12/02 10:11:59;;;;;;;56.1;44.4;;;;;;;;;;;;;
2019/12/02 10:14:16;;;;;;;58;44.3;;;;;;;;;;;;;
2019/12/02 10:17:13;;;;;;;59.1;46.2;;;;;;;;;;;;;
2019/12/02 10:19:28;;;;;;;56.5;45.6;;;;;;;;;;;;;
2019/12/02 10:21:52;;;;;;;56;45.2;;;;;;;;;;;;;
2019/12/02 10:26:57;;;;;;;55.9;45.3;;;;;;;;;;;;;
2019/12/02 10:29:23;;;;;;;61.2;48.1;;;;;;;;;;;;;
2019/12/02 10:31:50;;;;;;;59.7;46.7;;;;;;;;;;;;;
2019/12/02 10:34:16;;;;;;;56.1;45.5;;;;;;;;;;;;;
2019/12/02 10:36:43;;;;;;;59.7;45.3;;;;;;;;;;;;;
2019/12/02 10:39:14;;;;;;;61.5;47.9;;;;;;;;;;;;;
2019/12/02 10:41:50;;;;;;;58.7;45.3;;;;;;;;;;;;;
2019/12/02 10:44:14;;;;;;;54.8;43.7;;;;;;;;;;;;;
2019/12/02 10:46:43;;;;;;;58.7;45.6;;;;;;;;;;;;;
2019/12/02 10:49:10;;;;;;;56.2;44.5;;;;;;;;;;;;;
2019/12/02 10:51:34;;;;;;;57.5;45.2;;;;;;;;;;;;;
2019/12/02 10:53:58;;;;;;;53.1;42.6;;;;;;;;;;;;;
2019/12/02 10:56:29;;;;;;;58.3;44.9;;;;;;;;;;;;;
2019/12/02 10:58:54;;;;;;;56;44.6;;;;;;;;;;;;;
2019/12/02 11:01:26;;;;;;;53.9;43.2;;;;;;;;;;;;;
2019/12/02 11:03:47;;;;;;;50.5;41.6;;;;;;;;;;;;;
2019/12/02 11:06:12;;;;;;;58.1;44.7;;;;;;;;;;;;;
2019/12/02 11:08:45;;;;;;;54.4;42.7;;;;;;;;;;;;;
2019/12/02 11:11:03;;;;;;;59.7;45.8;;;;;;;;;;;;;
2019/12/02 11:13:32;;;;;;;62;47.7;;;;;;;;;;;;;
2019/12/02 11:16:10;;;;;;;61.8;46.9;;;;;;;;;;;;;
2019/12/02 11:18:27;;;;;;;58.6;44.5;;;;;;;;;;;;;
2019/12/02 11:20:57;;;;;;;56.7;43.2;;;;;;;;;;;;;
2019/12/02 11:23:21;;;;;;;63.1;47.2;;;;;;;;;;;;;
2019/12/02 11:28:16;;;;;;;59.1;46.1;;;;;;;;;;;;;
2019/12/02 11:30:41;;;;;;;60.9;45.6;;;;;;;;;;;;;
2019/12/02 11:33:09;;;;;;;60.1;45.7;;;;;;;;;;;;;
2019/12/02 11:35:33;;;;;;;55.8;44.3;;;;;;;;;;;;;
2019/12/02 11:38:03;;;;;;;56.3;42.8;;;;;;;;;;;;;
2019/12/02 11:40:32;;;;;;;54.3;43;;;;;;;;;;;;;
2019/12/02 11:42:53;;;;;;;56;43.5;;;;;;;;;;;;;
2019/12/02 11:45:16;;;;;;;55.9;44.2;;;;;;;;;;;;;
2019/12/02 11:47:41;;;;;;;56.6;44.5;;;;;;;;;;;;;
2019/12/02 11:50:15;;;;;;;55.3;42.7;;;;;;;;;;;;;
2019/12/02 11:52:42;;;;;;;55.8;44.5;;;;;;;;;;;;;
2019/12/02 11:55:15;;;;;;;56.3;44.9;;;;;;;;;;;;;
2019/12/02 11:57:37;;;;;;;56.1;44.8;;;;;;;;;;;;;
2019/12/02 12:00:12;;;;;;;56.1;44.7;;;;;;;;;;;;;
2019/12/02 12:02:38;;;;;;;62.2;47.1;;;;;;;;;;;;;
2019/12/02 12:05:10;;;;;;;60.5;47.4;;;;;;;;;;;;;
2019/12/02 12:07:27;;;;;;;61.2;47.6;;;;;;;;;;;;;
2019/12/02 12:09:54;;;;;;;58.7;47.1;;;;;;;;;;;;;
2019/12/02 12:12:16;;;;;;;56.7;45.4;;;;;;;;;;;;;
2019/12/02 12:14:52;;;;;;;50.7;42.5;;;;;;;;;;;;;
2019/12/02 12:17:14;;;;;;;49.1;42.3;;;;;;;;;;;;;
2019/12/02 12:19:52;;;;;;;50.3;41.9;;;;;;;;;;;;;
2019/12/02 12:22:17;;;;;;;51.7;43.3;;;;;;;;;;;;;
2019/12/02 12:24:38;;;;;;;53;42.4;;;;;;;;;;;;;
2019/12/02 12:27:03;;;;;;;51.6;43.1;;;;;;;;;;;;;
2019/12/02 12:29:28;;;;;;;51.5;42.2;;;;;;;;;;;;;
2019/12/02 12:32:12;;;;;;;53.8;44.2;;;;;;;;;;;;;
2019/12/02 12:34:38;;;;;;;52.8;43.5;;;;;;;;;;;;;
2019/12/02 12:37:05;;;;;;;49.9;42.7;;;;;;;;;;;;;
2019/12/02 12:39:32;;;;;;;52.7;42.3;;;;;;;;;;;;;
2019/12/02 12:41:59;;;;;;;51.5;42.6;;;;;;;;;;;;;
2019/12/02 12:44:43;;;;;;;52.3;43.6;;;;;;;;;;;;;
2019/12/02 12:46:58;;;;;;;52.9;42.7;;;;;;;;;;;;;
2019/12/02 12:49:33;;;;;;;55.5;43.9;;;;;;;;;;;;;
2019/12/02 12:51:51;;;;;;;52.1;42.5;;;;;;;;;;;;;
2019/12/02 12:54:17;;;;;;;52.4;42.3;;;;;;;;;;;;;
2019/12/02 12:56:46;;;;;;;52;42.9;;;;;;;;;;;;;
2019/12/02 12:59:27;;;;;;;51.5;42.9;;;;;;;;;;;;;
2019/12/02 13:01:57;;;;;;;49.2;40.3;;;;;;;;;;;;;
2019/12/02 13:04:14;;;;;;;48.5;39.6;;;;;;;;;;;;;
2019/12/02 13:06:39;;;;;;;49.8;40.3;;;;;;;;;;;;;
2019/12/02 13:09:02;;;;;;;47.7;38.7;;;;;;;;;;;;;
2019/12/02 13:11:29;;;;;;;47.8;38.2;;;;;;;;;;;;;
2019/12/02 13:13:53;;;;;;;47.8;38.5;;;;;;;;;;;;;
2019/12/02 13:16:18;;;;;;;46.2;38.6;;;;;;;;;;;;;
2019/12/02 13:18:51;;;;;;;45.6;39;;;;;;;;;;;;;
2019/12/02 13:21:19;;;;;;;49.1;40.6;;;;;;;;;;;;;
2019/12/02 13:23:48;;;;;;;50.8;40.6;;;;;;;;;;;;;
2019/12/02 13:26:24;;;;;;;53.4;41.8;;;;;;;;;;;;;
2019/12/02 13:28:41;;;;;;;50.4;41.3;;;;;;;;;;;;;
2019/12/02 13:31:08;;;;;;;47.3;40.9;;;;;;;;;;;;;
2019/12/02 13:33:31;;;;;;;51.9;41.3;;;;;;;;;;;;;
2019/12/02 13:35:59;;;;;;;53.1;41.9;;;;;;;;;;;;;
2019/12/02 13:38:23;;;;;;;52.2;41.1;;;;;;;;;;;;;
2019/12/02 13:40:49;;;;;;;48.4;38.5;;;;;;;;;;;;;
2019/12/02 13:43:17;;;;;;;46.3;38.2;;;;;;;;;;;;;
2019/12/02 13:45:45;;;;;;;53;40.6;;;;;;;;;;;;;
2019/12/02 13:48:16;;;;;;;48.8;38.4;;;;;;;;;;;;;
2019/12/02 13:50:36;;;;;;;46.4;37.8;;;;;;;;;;;;;
2019/12/02 13:53:02;;;;;;;51.2;40.9;;;;;;;;;;;;;
2019/12/02 13:55:31;;;;;;;45.2;38.3;;;;;;;;;;;;;
2019/12/02 13:59:36;;;;;;;46.7;38.5;;;;;;;;;;;;;
2019/12/02 14:00:21;;;;;;;46.3;38;;;;;;;;;;;;;
2019/12/02 14:05:29;;;;;;;48.4;37.8;;;;;;;;;;;;;
2019/12/02 14:07:50;;;;;;;45.2;36.9;;;;;;;;;;;;;
2019/12/02 14:10:28;;;;;;;43.9;35.8;;;;;;;;;;;;;
2019/12/02 14:12:55;;;;;;;44.4;35.2;;;;;;;;;;;;;
2019/12/02 14:15:14;;;;;;;46.1;36;;;;;;;;;;;;;
2019/12/02 14:17:40;;;;;;;45.8;35.7;;;;;;;;;;;;;
2019/12/02 14:20:09;;;;;;;46.1;36;;;;;;;;;;;;;
2019/12/02 14:22:34;;;;;;;46.1;37.5;;;;;;;;;;;;;
2019/12/02 14:25:00;;;;;;;46.5;36.5;;;;;;;;;;;;;
2019/12/02 14:27:28;;;;;;;50.2;39.7;;;;;;;;;;;;;
2019/12/02 14:29:50;;;;;;;50.6;39.4;;;;;;;;;;;;;
2019/12/02 14:32:15;;;;;;;51.8;40.2;;;;;;;;;;;;;
2019/12/02 14:34:45;;;;;;;49.4;40.1;;;;;;;;;;;;;
2019/12/02 14:37:10;;;;;;;53.1;41.4;;;;;;;;;;;;;
2019/12/02 14:39:35;;;;;;;51.1;41.6;;;;;;;;;;;;;
2019/12/02 14:42:07;;;;;;;55.7;43.7;;;;;;;;;;;;;
2019/12/02 15:56:05;;;;;;;52.3;41.9;;;;;;;;;;;;;
2019/12/02 15:58:38;;;;;;;69.1;50.7;;;;;;;;;;;;;
2019/12/02 16:01:08;;;;;;;52.8;43.5;;;;;;;;;;;;;
2019/12/02 16:03:30;;;;;;;56.3;43.9;;;;;;;;;;;;;
2019/12/02 16:05:56;;;;;;;63.5;50.4;;;;;;;;;;;;;
2019/12/02 16:08:27;;;;;;;51.9;41.5;;;;;;;;;;;;;
2019/12/02 16:10:54;;;;;;;52.4;42.7;;;;;;;;;;;;;
2019/12/02 16:13:19;;;;;;;54.1;44.4;;;;;;;;;;;;;
2019/12/02 16:15:41;;;;;;;51.7;43.7;;;;;;;;;;;;;
2019/12/02 16:18:05;;;;;;;49.1;41.6;;;;;;;;;;;;;
2019/12/02 16:20:31;;;;;;;49.7;40.7;;;;;;;;;;;;;
2019/12/02 16:23:13;;;;;;;51.3;40.5;;;;;;;;;;;;;
2019/12/02 16:25:35;;;;;;;49.7;41.3;;;;;;;;;;;;;
2019/12/02 16:28:01;;;;;;;51.4;43.5;;;;;;;;;;;;;
2019/12/02 16:30:25;;;;;;;48.7;40.9;;;;;;;;;;;;;
2019/12/02 16:32:52;;;;;;;49.7;41.2;;;;;;;;;;;;;
2019/12/02 16:35:20;;;;;;;50;40.5;;;;;;;;;;;;;
2019/12/02 16:45:28;;;;;;;50.8;42.1;;;;;;;;;;;;;
2019/12/02 16:47:46;;;;;;;53.3;43.4;;;;;;;;;;;;;
2019/12/02 16:50:17;;;;;;;52.7;41;;;;;;;;;;;;;
2019/12/02 16:52:37;;;;;;;53.8;43;;;;;;;;;;;;;
2019/12/02 16:55:08;;;;;;;52.1;43;;;;;;;;;;;;;
2019/12/02 16:57:51;;;;;;;51.3;43.1;;;;;;;;;;;;;
2019/12/02 17:00:17;;;;;;;55.8;46.5;;;;;;;;;;;;;
2019/12/02 17:02:47;;;;;;;57.3;45.1;;;;;;;;;;;;;
2019/12/02 17:05:14;;;;;;;56.7;45.5;;;;;;;;;;;;;
2019/12/02 17:10:17;;;;;;;56.9;45.1;;;;;;;;;;;;;
2019/12/02 17:15:12;;;;;;;57.5;45.1;;;;;;;;;;;;;
2019/12/02 17:17:39;;;;;;;55.8;44;;;;;;;;;;;;;
2019/12/02 17:20:01;;;;;;;57.1;44.7;;;;;;;;;;;;;
2019/12/02 17:22:34;;;;;;;55.1;44.5;;;;;;;;;;;;;
2019/12/02 17:24:51;;;;;;;55.4;44.7;;;;;;;;;;;;;
2019/12/02 17:27:18;;;;;;;54.9;42.4;;;;;;;;;;;;;
2019/12/02 17:29:41;;;;;;;55.3;43.8;;;;;;;;;;;;;
2019/12/02 17:32:08;;;;;;;52.8;42.4;;;;;;;;;;;;;
2019/12/02 17:34:33;;;;;;;54.8;43.5;;;;;;;;;;;;;
2019/12/02 17:36:58;;;;;;;53.4;43.2;;;;;;;;;;;;;
2019/12/02 17:39:27;;;;;;;54.1;43.4;;;;;;;;;;;;;
2019/12/02 17:41:53;;;;;;;51.2;41.8;;;;;;;;;;;;;
2019/12/02 17:44:16;;;;;;;55.1;43.8;;;;;;;;;;;;;
2019/12/02 17:49:14;;;;;;;52.5;42;;;;;;;;;;;;;
2019/12/02 17:51:44;;;;;;;57.3;43.8;;;;;;;;;;;;;
2019/12/02 17:54:08;;;;;;;54.9;42.8;;;;;;;;;;;;;
2019/12/02 17:56:40;;;;;;;54.1;42.5;;;;;;;;;;;;;
2019/12/02 17:59:06;;;;;;;55.2;43;;;;;;;;;;;;;
2019/12/02 18:01:37;;;;;;;54.4;44.1;;;;;;;;;;;;;
2019/12/02 18:04:00;;;;;;;54.8;43.5;;;;;;;;;;;;;
2019/12/02 18:06:30;;;;;;;56.3;43.9;;;;;;;;;;;;;
2019/12/02 18:08:56;;;;;;;55.3;44.3;;;;;;;;;;;;;
2019/12/02 18:11:26;;;;;;;59.4;45.5;;;;;;;;;;;;;
2019/12/02 18:13:45;;;;;;;57.4;44.6;;;;;;;;;;;;;
2019/12/02 18:17:15;;;;;;;57.6;45.5;;;;;;;;;;;;;
2019/12/02 18:18:53;;;;;;;59.4;46.3;;;;;;;;;;;;;
2019/12/02 18:21:10;;;;;;;59.5;46.4;;;;;;;;;;;;;
2019/12/02 18:23:35;;;;;;;57;46.1;;;;;;;;;;;;;
2019/12/02 18:26:00;;;;;;;56.8;45.5;;;;;;;;;;;;;
2019/12/02 18:29:14;;;;;;;57.8;45.1;;;;;;;;;;;;;
2019/12/02 18:31:33;;;;;;;58.4;46.7;;;;;;;;;;;;;
2019/12/02 18:34:00;;;;;;;59.9;46.9;;;;;;;;;;;;;
2019/12/02 18:36:32;;;;;;;58;45.8;;;;;;;;;;;;;
2019/12/02 18:38:51;;;;;;;58.2;45.6;;;;;;;;;;;;;
2019/12/02 18:41:16;;;;;;;58.8;46.7;;;;;;;;;;;;;
2019/12/02 18:43:51;;;;;;;58.1;46.2;;;;;;;;;;;;;
2019/12/02 18:46:16;;;;;;;57.8;46;;;;;;;;;;;;;
2019/12/02 18:48:42;;;;;;;60;47.1;;;;;;;;;;;;;
2019/12/02 18:51:15;;;;;;;59.8;47.2;;;;;;;;;;;;;
2019/12/02 18:53:33;;;;;;;60.2;46.7;;;;;;;;;;;;;
2019/12/02 18:55:54;;;;;;;56.4;44.7;;;;;;;;;;;;;
2019/12/02 18:58:19;;;;;;;59;46;;;;;;;;;;;;;
2019/12/02 19:00:47;;;;;;;56.8;45.9;;;;;;;;;;;;;
2019/12/02 19:03:11;;;;;;;57.8;45.5;;;;;;;;;;;;;
2019/12/02 19:05:35;;;;;;;54.3;43.9;;;;;;;;;;;;;
2019/12/02 19:08:03;;;;;;;56.5;44.7;;;;;;;;;;;;;
2019/12/02 19:10:31;;;;;;;54.3;43.7;;;;;;;;;;;;;
2019/12/02 19:13:25;;;;;;;56.8;45.6;;;;;;;;;;;;;
2019/12/02 19:16:09;;;;;;;56.4;44.2;;;;;;;;;;;;;
2019/12/02 19:18:18;;;;;;;53.7;43.3;;;;;;;;;;;;;
2019/12/02 19:20:20;;;;;;;56.4;44.1;;;;;;;;;;;;;
2019/12/02 19:22:46;;;;;;;53;42.1;;;;;;;;;;;;;
2019/12/02 19:25:11;;;;;;;57.1;45.8;;;;;;;;;;;;;
2019/12/02 19:27:39;;;;;;;55.4;44.3;;;;;;;;;;;;;
2019/12/02 19:30:13;;;;;;;51.2;41.5;;;;;;;;;;;;;
2019/12/02 19:32:32;;;;;;;50.9;41.8;;;;;;;;;;;;;
2019/12/02 19:34:59;;;;;;;48.2;41;;;;;;;;;;;;;
2019/12/02 19:37:24;;;;;;;48.9;39.6;;;;;;;;;;;;;
2019/12/02 19:39:55;;;;;;;51.5;41.4;;;;;;;;;;;;;
2019/12/02 19:42:22;;;;;;;51.6;41.7;;;;;;;;;;;;;
2019/12/02 19:44:50;;;;;;;52.4;42.3;;;;;;;;;;;;;
2019/12/02 19:47:13;;;;;;;49.3;40.1;;;;;;;;;;;;;
2019/12/02 19:50:00;;;;;;;48;40.6;;;;;;;;;;;;;